createdAt,value
2018-09-15T00:00:18.345Z,23.80
2018-09-15T00:01:18.345Z,24.00
2018-09-15T00:02:18.333Z,26.40
2018-09-15T00:03:18.329Z,25.20
2018-09-15T00:04:18.403Z,23.90
2018-09-15T00:05:18.318Z,25.80
2018-09-15T00:06:18.312Z,25.40
2018-09-15T00:07:18.403Z,26.90
2018-09-15T00:08:18.305Z,28.20
2018-09-15T00:09:18.299Z,27.40
2018-09-15T00:10:18.294Z,27.40
2018-09-15T00:11:18.291Z,26.40
2018-09-15T00:12:18.282Z,25.40
2018-09-15T00:13:18.280Z,25.20
2018-09-15T00:14:18.350Z,27.60
2018-09-15T00:15:18.262Z,25.00
2018-09-15T00:16:18.261Z,29.70
2018-09-15T00:17:18.250Z,27.40
2018-09-15T00:18:18.305Z,30.40
2018-09-15T00:19:18.241Z,26.40
2018-09-15T00:20:18.239Z,25.80
2018-09-15T00:21:18.302Z,27.60
2018-09-15T00:22:18.229Z,29.20
2018-09-15T00:23:18.224Z,28.90
2018-09-15T00:24:18.211Z,25.40
2018-09-15T00:25:18.255Z,30.80
2018-09-15T00:26:18.199Z,28.40
2018-09-15T00:27:18.194Z,30.20
2018-09-15T00:28:18.191Z,27.10
2018-09-15T00:29:18.182Z,29.30
2018-09-15T00:30:18.174Z,29.40
2018-09-15T00:31:18.171Z,28.00
2018-09-15T00:32:18.164Z,28.40
2018-09-15T00:33:18.162Z,28.70
2018-09-15T00:34:18.151Z,26.90
2018-09-15T00:35:18.152Z,26.00
2018-09-15T00:36:18.141Z,26.70
2018-09-15T00:37:18.139Z,26.80
2018-09-15T00:38:18.217Z,25.70
2018-09-15T00:39:18.120Z,25.70
2018-09-15T00:40:18.120Z,26.30
2018-09-15T00:41:18.114Z,28.30
2018-09-15T00:42:18.108Z,25.90
2018-09-15T00:43:18.105Z,26.10
2018-09-15T00:44:18.121Z,25.90
2018-09-15T00:45:18.162Z,29.40
2018-09-15T00:46:18.082Z,27.40
2018-09-15T00:47:18.075Z,32.90
2018-09-15T00:48:18.072Z,27.00
2018-09-15T00:49:18.111Z,30.40
2018-09-15T00:50:18.081Z,31.60
2018-09-15T00:51:18.057Z,30.20
2018-09-15T00:52:18.044Z,30.30
2018-09-15T00:53:18.041Z,35.80
2018-09-15T00:54:18.032Z,36.80
2018-09-15T00:55:18.028Z,33.70
2018-09-15T00:56:18.063Z,37.10
2018-09-15T00:57:18.017Z,35.70
2018-09-15T00:58:18.008Z,37.00
2018-09-15T00:59:18.086Z,37.10
2018-09-15T01:00:17.999Z,35.80
2018-09-15T01:01:17.994Z,35.90
2018-09-15T01:02:17.985Z,35.80
2018-09-15T01:03:17.975Z,38.50
2018-09-15T01:04:17.974Z,35.70
2018-09-15T01:05:17.968Z,38.50
2018-09-15T01:06:17.957Z,36.30
2018-09-15T01:07:17.949Z,37.80
2018-09-15T01:08:17.950Z,36.70
2018-09-15T01:09:17.991Z,34.00
2018-09-15T01:10:17.929Z,34.10
2018-09-15T01:11:17.923Z,35.70
2018-09-15T01:12:17.918Z,36.20
2018-09-15T01:13:17.909Z,38.20
2018-09-15T01:14:18.050Z,36.00
2018-09-15T01:15:17.895Z,34.70
2018-09-15T01:16:17.976Z,33.40
2018-09-15T01:17:17.882Z,35.60
2018-09-15T01:18:17.881Z,34.20
2018-09-15T01:19:17.876Z,35.50
2018-09-15T01:20:17.864Z,35.80
2018-09-15T01:21:17.856Z,31.80
2018-09-15T01:22:17.848Z,35.00
2018-09-15T01:23:17.924Z,35.70
2018-09-15T01:24:17.840Z,31.70
2018-09-15T01:25:17.831Z,38.40
2018-09-15T01:26:17.823Z,32.10
2018-09-15T01:27:17.816Z,30.90
2018-09-15T01:28:17.812Z,32.80
2018-09-15T01:29:17.802Z,31.50
2018-09-15T01:30:17.803Z,33.80
2018-09-15T01:31:17.790Z,30.40
2018-09-15T01:32:17.784Z,30.30
2018-09-15T01:33:17.777Z,30.30
2018-09-15T01:34:17.777Z,32.60
2018-09-15T01:35:17.767Z,28.90
2018-09-15T01:36:17.758Z,32.50
2018-09-15T01:37:17.750Z,29.40
2018-09-15T01:38:17.802Z,29.40
2018-09-15T01:39:17.739Z,29.90
2018-09-15T01:40:17.800Z,29.10
2018-09-15T01:41:17.727Z,30.30
2018-09-15T01:42:17.852Z,29.70
2018-09-15T01:43:17.717Z,29.60
2018-09-15T01:44:17.711Z,33.00
2018-09-15T01:45:17.704Z,33.80
2018-09-15T01:46:17.698Z,29.80
2018-09-15T01:47:17.689Z,28.30
2018-09-15T01:48:17.684Z,30.60
2018-09-15T01:49:17.679Z,31.00
2018-09-15T01:50:17.674Z,30.00
2018-09-15T01:51:17.670Z,30.00
2018-09-15T01:52:17.663Z,38.90
2018-09-15T01:53:17.651Z,35.80
2018-09-15T01:54:17.733Z,32.10
2018-09-15T01:55:17.729Z,34.70
2018-09-15T01:56:17.632Z,34.60
2018-09-15T01:57:17.625Z,31.40
2018-09-15T01:58:17.622Z,31.20
2018-09-15T01:59:17.620Z,31.30
2018-09-15T02:00:17.609Z,31.20
2018-09-15T02:01:17.684Z,30.80
2018-09-15T02:02:17.594Z,32.20
2018-09-15T02:03:17.588Z,31.00
2018-09-15T02:04:17.581Z,34.10
2018-09-15T02:05:17.581Z,31.80
2018-09-15T02:06:17.567Z,34.20
2018-09-15T02:07:17.562Z,30.60
2018-09-15T02:08:17.564Z,30.80
2018-09-15T02:09:17.556Z,34.30
2018-09-15T02:10:17.545Z,34.50
2018-09-15T02:11:17.537Z,37.10
2018-09-15T02:12:17.535Z,34.40
2018-09-15T02:13:17.528Z,40.70
2018-09-15T02:14:17.523Z,35.40
2018-09-15T02:15:17.515Z,36.30
2018-09-15T02:16:17.504Z,33.70
2018-09-15T02:17:17.503Z,32.50
2018-09-15T02:18:17.494Z,34.50
2018-09-15T02:19:17.496Z,37.80
2018-09-15T02:20:17.481Z,43.20
2018-09-15T02:21:17.477Z,39.10
2018-09-15T02:22:17.547Z,40.70
2018-09-15T02:23:17.466Z,38.10
2018-09-15T02:24:17.459Z,46.00
2018-09-15T02:25:17.448Z,37.20
2018-09-15T02:26:17.445Z,36.50
2018-09-15T02:27:17.442Z,37.90
2018-09-15T02:28:17.436Z,38.80
2018-09-15T02:29:17.429Z,39.40
2018-09-15T02:30:17.465Z,39.70
2018-09-15T02:31:17.416Z,39.90
2018-09-15T02:32:17.496Z,39.10
2018-09-15T02:33:17.407Z,36.20
2018-09-15T02:34:17.396Z,37.70
2018-09-15T02:35:17.385Z,38.80
2018-09-15T02:36:17.446Z,39.40
2018-09-15T02:37:17.370Z,42.20
2018-09-15T02:38:17.372Z,38.30
2018-09-15T02:39:17.441Z,41.10
2018-09-15T02:40:17.363Z,41.80
2018-09-15T02:41:17.350Z,44.00
2018-09-15T02:42:17.342Z,41.10
2018-09-15T02:43:17.334Z,39.00
2018-09-15T02:44:17.328Z,38.90
2018-09-15T02:45:17.327Z,37.90
2018-09-15T02:46:17.392Z,37.60
2018-09-15T02:47:17.309Z,37.30
2018-09-15T02:48:17.303Z,34.90
2018-09-15T02:49:17.297Z,37.60
2018-09-15T02:50:17.288Z,35.90
2018-09-15T02:51:17.290Z,40.30
2018-09-15T02:52:17.274Z,37.80
2018-09-15T02:53:17.344Z,36.80
2018-09-15T02:54:17.260Z,35.50
2018-09-15T02:55:17.255Z,34.00
2018-09-15T02:56:17.256Z,36.30
2018-09-15T02:57:17.246Z,32.40
2018-09-15T02:58:17.309Z,35.90
2018-09-15T02:59:17.230Z,35.20
2018-09-15T03:00:17.313Z,33.70
2018-09-15T03:01:17.215Z,37.20
2018-09-15T03:02:17.209Z,36.70
2018-09-15T03:03:17.206Z,32.30
2018-09-15T03:04:17.197Z,33.50
2018-09-15T03:05:17.196Z,33.10
2018-09-15T03:06:17.186Z,35.30
2018-09-15T03:07:17.177Z,32.40
2018-09-15T03:08:17.170Z,40.20
2018-09-15T03:09:17.169Z,35.40
2018-09-15T03:10:17.158Z,31.60
2018-09-15T03:11:17.188Z,31.60
2018-09-15T03:12:17.149Z,32.00
2018-09-15T03:13:17.158Z,33.90
2018-09-15T03:14:17.210Z,34.00
2018-09-15T03:15:17.129Z,33.60
2018-09-15T03:16:17.127Z,35.90
2018-09-15T03:17:17.203Z,35.60
2018-09-15T03:18:17.108Z,34.70
2018-09-15T03:19:17.100Z,36.30
2018-09-15T03:20:17.102Z,33.20
2018-09-15T03:21:17.088Z,32.80
2018-09-15T03:22:17.118Z,34.80
2018-09-15T03:23:17.074Z,39.80
2018-09-15T03:24:17.150Z,34.80
2018-09-15T03:25:17.067Z,32.00
2018-09-15T03:26:17.055Z,33.40
2018-09-15T03:27:17.054Z,33.80
2018-09-15T03:28:17.056Z,37.00
2018-09-15T03:29:17.039Z,38.00
2018-09-15T03:30:17.034Z,37.30
2018-09-15T03:31:17.081Z,35.00
2018-09-15T03:32:17.023Z,39.60
2018-09-15T03:33:17.010Z,37.30
2018-09-15T03:34:17.012Z,36.00
2018-09-15T03:35:17.006Z,38.70
2018-09-15T03:36:16.991Z,36.80
2018-09-15T03:37:16.984Z,35.60
2018-09-15T03:38:17.047Z,39.40
2018-09-15T03:39:16.970Z,35.40
2018-09-15T03:40:16.968Z,34.70
2018-09-15T03:41:17.022Z,33.20
2018-09-15T03:42:16.949Z,36.30
2018-09-15T03:43:16.941Z,34.40
2018-09-15T03:44:16.938Z,34.20
2018-09-15T03:45:16.929Z,36.50
2018-09-15T03:46:16.923Z,37.00
2018-09-15T03:47:16.922Z,36.50
2018-09-15T03:48:16.909Z,36.20
2018-09-15T03:49:16.905Z,33.80
2018-09-15T03:50:16.912Z,34.40
2018-09-15T03:51:16.890Z,33.20
2018-09-15T03:52:16.972Z,36.50
2018-09-15T03:53:16.874Z,35.70
2018-09-15T03:54:16.873Z,37.80
2018-09-15T03:55:16.868Z,33.50
2018-09-15T03:56:16.857Z,35.40
2018-09-15T03:57:16.848Z,37.30
2018-09-15T03:58:16.841Z,38.00
2018-09-15T03:59:16.916Z,36.80
2018-09-15T04:00:16.828Z,36.20
2018-09-15T04:01:16.821Z,37.90
2018-09-15T04:02:16.824Z,34.60
2018-09-15T04:03:16.809Z,32.90
2018-09-15T04:04:16.802Z,35.90
2018-09-15T04:05:16.803Z,36.40
2018-09-15T04:06:16.790Z,37.70
2018-09-15T04:07:16.789Z,30.90
2018-09-15T04:08:16.776Z,34.10
2018-09-15T04:09:16.764Z,33.90
2018-09-15T04:10:16.765Z,33.20
2018-09-15T04:11:16.756Z,34.50
2018-09-15T04:12:16.746Z,34.10
2018-09-15T04:13:16.739Z,34.30
2018-09-15T04:14:16.732Z,37.80
2018-09-15T04:15:16.724Z,33.80
2018-09-15T04:16:16.717Z,37.00
2018-09-15T04:17:16.713Z,33.70
2018-09-15T04:18:16.708Z,34.90
2018-09-15T04:19:16.696Z,34.90
2018-09-15T04:20:16.762Z,35.50
2018-09-15T04:21:16.733Z,35.20
2018-09-15T04:22:16.675Z,35.70
2018-09-15T04:23:16.668Z,34.60
2018-09-15T04:24:16.663Z,33.40
2018-09-15T04:25:16.655Z,34.00
2018-09-15T04:26:16.655Z,35.20
2018-09-15T04:27:16.710Z,34.40
2018-09-15T04:28:16.715Z,35.20
2018-09-15T04:29:16.629Z,36.50
2018-09-15T04:30:16.701Z,34.00
2018-09-15T04:31:16.617Z,35.60
2018-09-15T04:32:16.618Z,34.50
2018-09-15T04:33:16.599Z,37.50
2018-09-15T04:34:16.658Z,35.50
2018-09-15T04:35:16.590Z,36.70
2018-09-15T04:36:16.590Z,33.80
2018-09-15T04:37:16.654Z,37.40
2018-09-15T04:38:16.561Z,31.80
2018-09-15T04:39:16.555Z,33.70
2018-09-15T04:40:16.552Z,32.80
2018-09-15T04:41:16.541Z,37.50
2018-09-15T04:42:16.537Z,35.50
2018-09-15T04:43:16.527Z,35.30
2018-09-15T04:44:16.597Z,39.50
2018-09-15T04:45:16.520Z,35.90
2018-09-15T04:46:16.504Z,38.00
2018-09-15T04:47:16.499Z,37.20
2018-09-15T04:48:16.550Z,37.70
2018-09-15T04:49:16.484Z,33.90
2018-09-15T04:50:16.477Z,40.50
2018-09-15T04:51:16.545Z,33.10
2018-09-15T04:52:16.470Z,32.20
2018-09-15T04:53:16.462Z,34.00
2018-09-15T04:54:16.452Z,32.00
2018-09-15T04:55:16.504Z,34.60
2018-09-15T04:56:16.440Z,37.10
2018-09-15T04:57:16.428Z,41.60
2018-09-15T04:58:16.494Z,39.00
2018-09-15T04:59:16.418Z,35.30
2018-09-15T05:00:16.413Z,35.10
2018-09-15T05:01:16.401Z,38.60
2018-09-15T05:02:16.393Z,33.60
2018-09-15T05:03:16.395Z,35.50
2018-09-15T05:04:16.386Z,36.50
2018-09-15T05:05:16.380Z,35.60
2018-09-15T05:06:16.371Z,37.80
2018-09-15T05:07:16.360Z,41.00
2018-09-15T05:08:16.358Z,42.50
2018-09-15T05:09:16.346Z,35.10
2018-09-15T05:10:16.338Z,35.00
2018-09-15T05:11:16.332Z,34.50
2018-09-15T05:12:16.341Z,35.60
2018-09-15T05:13:16.320Z,33.10
2018-09-15T05:14:16.316Z,34.90
2018-09-15T05:15:16.315Z,35.00
2018-09-15T05:16:16.302Z,34.40
2018-09-15T05:17:16.292Z,37.50
2018-09-15T05:18:16.289Z,36.70
2018-09-15T05:19:16.280Z,36.40
2018-09-15T05:20:16.270Z,35.90
2018-09-15T05:21:16.268Z,39.40
2018-09-15T05:22:16.263Z,35.60
2018-09-15T05:23:16.248Z,34.80
2018-09-15T05:24:16.240Z,37.50
2018-09-15T05:25:16.235Z,37.50
2018-09-15T05:26:16.225Z,38.90
2018-09-15T05:27:16.222Z,39.60
2018-09-15T05:28:16.220Z,38.30
2018-09-15T05:29:16.205Z,36.50
2018-09-15T05:30:16.198Z,33.80
2018-09-15T05:31:16.189Z,36.10
2018-09-15T05:32:16.186Z,32.10
2018-09-15T05:33:16.181Z,34.30
2018-09-15T05:34:16.169Z,37.80
2018-09-15T05:35:16.161Z,40.60
2018-09-15T05:36:16.163Z,42.60
2018-09-15T05:37:16.147Z,38.60
2018-09-15T05:38:16.153Z,38.70
2018-09-15T05:39:16.138Z,39.40
2018-09-15T05:40:16.178Z,37.40
2018-09-15T05:41:16.120Z,35.60
2018-09-15T05:42:16.117Z,34.40
2018-09-15T05:43:16.105Z,34.20
2018-09-15T05:44:16.117Z,32.60
2018-09-15T05:45:16.095Z,32.60
2018-09-15T05:46:16.083Z,31.50
2018-09-15T05:47:16.083Z,30.90
2018-09-15T05:48:16.072Z,28.60
2018-09-15T05:49:16.061Z,31.90
2018-09-15T05:50:16.059Z,31.80
2018-09-15T05:51:16.049Z,28.90
2018-09-15T05:52:16.043Z,30.00
2018-09-15T05:53:16.039Z,32.40
2018-09-15T05:54:16.029Z,27.80
2018-09-15T05:55:16.022Z,29.00
2018-09-15T05:56:16.014Z,29.30
2018-09-15T05:57:16.006Z,30.40
2018-09-15T05:58:16.006Z,30.60
2018-09-15T05:59:15.993Z,32.60
2018-09-15T06:00:15.986Z,35.50
2018-09-15T06:01:15.979Z,40.90
2018-09-15T06:02:15.973Z,39.50
2018-09-15T06:03:15.973Z,36.10
2018-09-15T06:04:15.960Z,40.10
2018-09-15T06:05:15.957Z,41.20
2018-09-15T06:06:15.947Z,45.10
2018-09-15T06:07:15.941Z,40.10
2018-09-15T06:08:15.932Z,40.00
2018-09-15T06:09:15.954Z,45.50
2018-09-15T06:10:15.922Z,39.50
2018-09-15T06:11:15.915Z,35.70
2018-09-15T06:12:15.905Z,40.80
2018-09-15T06:13:15.899Z,38.80
2018-09-15T06:14:15.891Z,39.20
2018-09-15T06:15:15.884Z,37.70
2018-09-15T06:16:15.886Z,36.20
2018-09-15T06:17:15.875Z,38.40
2018-09-15T06:18:15.867Z,39.40
2018-09-15T06:19:15.860Z,39.20
2018-09-15T06:20:15.851Z,37.40
2018-09-15T06:21:15.842Z,39.80
2018-09-15T06:22:15.842Z,38.30
2018-09-15T06:23:15.830Z,37.20
2018-09-15T06:24:15.830Z,40.50
2018-09-15T06:25:15.815Z,43.10
2018-09-15T06:26:15.813Z,40.30
2018-09-15T06:27:15.802Z,39.30
2018-09-15T06:28:15.797Z,37.50
2018-09-15T06:29:15.790Z,38.90
2018-09-15T06:30:15.793Z,39.30
2018-09-15T06:31:15.775Z,40.90
2018-09-15T06:32:15.769Z,39.60
2018-09-15T06:33:15.768Z,40.30
2018-09-15T06:34:15.757Z,38.80
2018-09-15T06:35:15.747Z,39.70
2018-09-15T06:36:15.791Z,38.00
2018-09-15T06:37:15.738Z,37.80
2018-09-15T06:38:15.727Z,34.10
2018-09-15T06:39:15.738Z,38.30
2018-09-15T06:40:15.715Z,36.40
2018-09-15T06:41:15.714Z,38.40
2018-09-15T06:42:15.705Z,37.20
2018-09-15T06:43:15.698Z,37.80
2018-09-15T06:44:15.686Z,35.70
2018-09-15T06:45:15.681Z,38.60
2018-09-15T06:46:15.675Z,38.00
2018-09-15T06:47:15.670Z,34.80
2018-09-15T06:48:15.666Z,37.40
2018-09-15T06:49:15.657Z,35.50
2018-09-15T06:50:15.644Z,34.90
2018-09-15T06:51:15.644Z,34.40
2018-09-15T06:52:15.631Z,32.60
2018-09-15T06:53:15.624Z,36.10
2018-09-15T06:54:15.617Z,36.00
2018-09-15T06:55:15.674Z,33.10
2018-09-15T06:56:15.603Z,34.40
2018-09-15T06:57:15.604Z,33.20
2018-09-15T06:58:15.591Z,33.20
2018-09-15T06:59:15.585Z,30.90
2018-09-15T07:00:15.577Z,31.00
2018-09-15T07:01:15.571Z,29.80
2018-09-15T07:02:15.569Z,30.90
2018-09-15T07:03:15.563Z,31.70
2018-09-15T07:04:15.554Z,30.80
2018-09-15T07:05:15.544Z,26.80
2018-09-15T07:06:15.538Z,29.20
2018-09-15T07:07:15.535Z,28.50
2018-09-15T07:08:15.528Z,27.80
2018-09-15T07:09:15.525Z,29.90
2018-09-15T07:10:15.516Z,31.20
2018-09-15T07:11:15.508Z,30.30
2018-09-15T07:12:15.503Z,28.20
2018-09-15T07:13:15.494Z,27.00
2018-09-15T07:14:15.488Z,27.90
2018-09-15T07:15:15.483Z,27.70
2018-09-15T07:16:15.484Z,30.10
2018-09-15T07:17:15.476Z,27.30
2018-09-15T07:18:15.470Z,26.40
2018-09-15T07:19:15.467Z,28.70
2018-09-15T07:20:15.512Z,27.40
2018-09-15T07:21:15.449Z,26.60
2018-09-15T07:22:15.446Z,24.60
2018-09-15T07:23:15.437Z,26.30
2018-09-15T07:24:15.434Z,25.80
2018-09-15T07:25:15.424Z,25.80
2018-09-15T07:26:15.416Z,25.50
2018-09-15T07:27:15.417Z,28.00
2018-09-15T07:28:15.408Z,26.30
2018-09-15T07:29:15.399Z,25.80
2018-09-15T07:30:15.400Z,25.60
2018-09-15T07:31:15.421Z,26.10
2018-09-15T07:32:15.387Z,28.00
2018-09-15T07:33:15.380Z,25.90
2018-09-15T07:34:15.377Z,24.40
2018-09-15T07:35:15.371Z,25.90
2018-09-15T07:36:15.363Z,23.70
2018-09-15T07:37:15.360Z,23.30
2018-09-15T07:38:15.348Z,24.70
2018-09-15T07:39:15.347Z,25.80
2018-09-15T07:40:15.341Z,24.60
2018-09-15T07:41:15.339Z,22.60
2018-09-15T07:42:15.332Z,23.90
2018-09-15T07:43:15.326Z,21.90
2018-09-15T07:44:15.314Z,22.70
2018-09-15T07:45:15.311Z,24.40
2018-09-15T07:46:15.302Z,27.70
2018-09-15T07:47:15.303Z,21.90
2018-09-15T07:48:15.298Z,23.50
2018-09-15T07:49:15.291Z,23.50
2018-09-15T07:50:15.278Z,25.40
2018-09-15T07:51:15.274Z,24.40
2018-09-15T07:52:15.270Z,30.30
2018-09-15T07:53:15.266Z,24.80
2018-09-15T07:54:15.261Z,22.50
2018-09-15T07:55:15.256Z,22.40
2018-09-15T07:56:15.246Z,24.50
2018-09-15T07:57:15.292Z,21.70
2018-09-15T07:58:15.235Z,20.90
2018-09-15T07:59:15.226Z,25.50
2018-09-15T08:00:15.221Z,24.20
2018-09-15T08:01:15.214Z,22.10
2018-09-15T08:02:15.210Z,22.10
2018-09-15T08:03:15.208Z,21.20
2018-09-15T08:04:15.200Z,19.00
2018-09-15T08:05:15.198Z,18.70
2018-09-15T08:06:15.187Z,21.60
2018-09-15T08:07:15.187Z,21.40
2018-09-15T08:08:15.181Z,18.50
2018-09-15T08:09:15.171Z,21.40
2018-09-15T08:10:15.165Z,19.40
2018-09-15T08:11:15.162Z,19.60
2018-09-15T08:12:15.160Z,17.90
2018-09-15T08:13:15.153Z,19.00
2018-09-15T08:14:15.153Z,15.50
2018-09-15T08:15:15.143Z,16.80
2018-09-15T08:16:15.134Z,17.60
2018-09-15T08:17:15.128Z,16.20
2018-09-15T08:18:15.124Z,13.90
2018-09-15T08:19:15.120Z,12.00
2018-09-15T08:20:15.118Z,10.60
2018-09-15T08:21:15.111Z,12.30
2018-09-15T08:22:15.111Z,12.60
2018-09-15T08:23:15.105Z,11.20
2018-09-15T08:24:15.096Z,12.30
2018-09-15T08:25:15.088Z,10.60
2018-09-15T08:26:15.169Z,10.70
2018-09-15T08:27:15.134Z,11.70
2018-09-15T08:28:15.078Z,12.40
2018-09-15T08:29:15.073Z,11.10
2018-09-15T08:30:15.064Z,13.50
2018-09-15T08:31:15.072Z,10.10
2018-09-15T08:32:15.051Z,13.40
2018-09-15T08:33:15.046Z,9.80
2018-09-15T08:34:15.046Z,9.40
2018-09-15T08:35:15.042Z,9.30
2018-09-15T08:36:15.032Z,9.70
2018-09-15T08:37:15.032Z,10.80
2018-09-15T08:38:15.078Z,8.70
2018-09-15T08:39:15.026Z,14.20
2018-09-15T08:40:15.013Z,8.80
2018-09-15T08:41:15.013Z,9.60
2018-09-15T08:42:15.006Z,9.60
2018-09-15T08:43:14.997Z,9.80
2018-09-15T08:44:15.012Z,11.30
2018-09-15T08:45:14.997Z,13.40
2018-09-15T08:46:14.985Z,10.80
2018-09-15T08:47:14.973Z,11.40
2018-09-15T08:48:15.039Z,8.80
2018-09-15T08:49:14.970Z,9.40
2018-09-15T08:50:14.963Z,11.70
2018-09-15T08:51:14.959Z,12.60
2018-09-15T08:52:14.948Z,9.80
2018-09-15T08:53:15.048Z,10.30
2018-09-15T08:54:14.937Z,11.20
2018-09-15T08:55:14.940Z,11.10
2018-09-15T08:56:14.999Z,8.50
2018-09-15T08:57:14.932Z,9.70
2018-09-15T08:58:14.926Z,11.60
2018-09-15T08:59:14.918Z,8.70
2018-09-15T09:00:14.908Z,10.20
2018-09-15T09:01:14.902Z,9.30
2018-09-15T09:02:14.899Z,9.20
2018-09-15T09:03:14.893Z,7.40
2018-09-15T09:04:14.890Z,9.20
2018-09-15T09:05:14.888Z,9.30
2018-09-15T09:06:14.884Z,9.80
2018-09-15T09:07:14.871Z,6.40
2018-09-15T09:08:14.875Z,7.10
2018-09-15T09:09:14.861Z,8.60
2018-09-15T09:10:14.887Z,8.00
2018-09-15T09:11:14.857Z,7.20
2018-09-15T09:12:14.850Z,9.20
2018-09-15T09:13:14.845Z,7.40
2018-09-15T09:14:14.842Z,6.60
2018-09-15T09:15:14.842Z,9.40
2018-09-15T09:16:14.837Z,8.20
2018-09-15T09:17:14.831Z,8.10
2018-09-15T09:18:14.836Z,7.50
2018-09-15T09:19:14.816Z,6.40
2018-09-15T09:20:14.815Z,6.10
2018-09-15T09:21:14.809Z,7.80
2018-09-15T09:22:14.801Z,7.50
2018-09-15T09:23:14.796Z,7.60
2018-09-15T09:24:14.793Z,7.80
2018-09-15T09:25:14.791Z,8.40
2018-09-15T09:26:14.864Z,7.40
2018-09-15T09:27:14.784Z,7.30
2018-09-15T09:28:14.774Z,7.10
2018-09-15T09:29:14.769Z,8.30
2018-09-15T09:30:14.813Z,10.80
2018-09-15T09:31:14.763Z,6.70
2018-09-15T09:32:14.760Z,6.30
2018-09-15T09:33:14.820Z,7.10
2018-09-15T09:34:14.756Z,8.50
2018-09-15T09:35:14.746Z,5.60
2018-09-15T09:36:14.745Z,9.90
2018-09-15T09:37:14.739Z,5.00
2018-09-15T09:38:14.741Z,6.70
2018-09-15T09:39:14.725Z,6.80
2018-09-15T09:40:14.719Z,5.80
2018-09-15T09:41:14.716Z,6.40
2018-09-15T09:42:14.713Z,6.00
2018-09-15T09:43:14.703Z,9.10
2018-09-15T09:44:14.710Z,8.90
2018-09-15T09:45:14.696Z,7.40
2018-09-15T09:46:14.694Z,8.40
2018-09-15T09:47:14.693Z,8.20
2018-09-15T09:48:14.700Z,5.40
2018-09-15T09:49:14.678Z,7.60
2018-09-15T09:50:14.675Z,5.80
2018-09-15T09:51:14.671Z,7.40
2018-09-15T09:52:14.664Z,5.50
2018-09-15T09:53:14.661Z,7.50
2018-09-15T09:54:14.659Z,6.80
2018-09-15T09:55:14.663Z,6.90
2018-09-15T09:56:14.647Z,7.10
2018-09-15T09:57:14.647Z,5.80
2018-09-15T09:58:14.644Z,6.00
2018-09-15T09:59:14.634Z,7.10
2018-09-15T10:00:14.634Z,5.90
2018-09-15T10:01:14.661Z,5.60
2018-09-15T10:02:14.631Z,5.40
2018-09-15T10:03:14.619Z,5.10
2018-09-15T10:04:14.623Z,4.70
2018-09-15T10:05:14.608Z,8.80
2018-09-15T10:06:14.607Z,6.70
2018-09-15T10:07:14.697Z,8.40
2018-09-15T10:08:14.600Z,9.90
2018-09-15T10:09:14.597Z,5.70
2018-09-15T10:10:14.594Z,5.10
2018-09-15T10:11:14.587Z,6.00
2018-09-15T10:12:14.588Z,6.80
2018-09-15T10:13:14.585Z,6.00
2018-09-15T10:14:14.573Z,6.80
2018-09-15T10:15:14.572Z,6.60
2018-09-15T10:16:14.620Z,5.50
2018-09-15T10:17:14.569Z,9.90
2018-09-15T10:18:14.558Z,4.60
2018-09-15T10:19:14.557Z,6.00
2018-09-15T10:20:14.557Z,4.70
2018-09-15T10:21:14.548Z,5.20
2018-09-15T10:22:14.546Z,6.10
2018-09-15T10:23:14.540Z,5.90
2018-09-15T10:24:14.539Z,8.30
2018-09-15T10:25:14.640Z,6.10
2018-09-15T10:26:14.529Z,6.60
2018-09-15T10:27:14.524Z,7.10
2018-09-15T10:28:14.520Z,5.70
2018-09-15T10:29:14.515Z,6.00
2018-09-15T10:30:14.512Z,5.20
2018-09-15T10:31:14.514Z,6.10
2018-09-15T10:32:14.506Z,7.50
2018-09-15T10:33:14.505Z,5.90
2018-09-15T10:34:14.505Z,3.90
2018-09-15T10:35:14.513Z,8.00
2018-09-15T10:36:14.513Z,4.30
2018-09-15T10:37:14.497Z,4.80
2018-09-15T10:38:14.484Z,5.80
2018-09-15T10:39:14.479Z,5.70
2018-09-15T10:40:14.526Z,7.60
2018-09-15T10:41:14.472Z,5.40
2018-09-15T10:42:14.472Z,5.90
2018-09-15T10:43:14.467Z,6.90
2018-09-15T10:44:14.470Z,6.80
2018-09-15T10:45:14.481Z,4.80
2018-09-15T10:46:14.460Z,5.80
2018-09-15T10:47:14.456Z,5.60
2018-09-15T10:48:14.454Z,6.70
2018-09-15T10:49:14.445Z,5.70
2018-09-15T10:50:14.445Z,4.00
2018-09-15T10:51:14.443Z,5.80
2018-09-15T10:52:14.501Z,4.20
2018-09-15T10:53:14.437Z,6.10
2018-09-15T10:54:14.433Z,6.40
2018-09-15T10:55:14.456Z,6.90
2018-09-15T10:56:14.433Z,6.30
2018-09-15T10:57:14.424Z,6.70
2018-09-15T10:58:14.413Z,4.60
2018-09-15T10:59:14.414Z,4.30
2018-09-15T11:00:14.414Z,6.80
2018-09-15T11:01:14.404Z,5.40
2018-09-15T11:02:14.400Z,6.00
2018-09-15T11:03:14.399Z,5.70
2018-09-15T11:04:14.396Z,7.00
2018-09-15T11:05:14.398Z,6.70
2018-09-15T11:06:14.390Z,6.00
2018-09-15T11:07:14.390Z,6.10
2018-09-15T11:08:14.382Z,5.60
2018-09-15T11:09:14.385Z,5.90
2018-09-15T11:10:14.380Z,5.30
2018-09-15T11:11:14.375Z,4.90
2018-09-15T11:12:14.374Z,5.00
2018-09-15T11:13:14.430Z,4.80
2018-09-15T11:14:14.363Z,6.30
2018-09-15T11:15:14.366Z,5.50
2018-09-15T11:16:14.356Z,3.80
2018-09-15T11:17:14.357Z,5.70
2018-09-15T11:18:14.354Z,4.10
2018-09-15T11:19:14.347Z,5.70
2018-09-15T11:20:14.347Z,4.60
2018-09-15T11:21:14.347Z,5.90
2018-09-15T11:22:14.341Z,5.20
2018-09-15T11:23:14.338Z,5.80
2018-09-15T11:24:14.334Z,7.80
2018-09-15T11:25:14.344Z,6.10
2018-09-15T11:26:14.330Z,4.80
2018-09-15T11:27:14.324Z,4.80
2018-09-15T11:28:14.322Z,5.10
2018-09-15T11:29:14.317Z,6.50
2018-09-15T11:30:14.317Z,4.80
2018-09-15T11:31:14.317Z,5.20
2018-09-15T11:32:14.313Z,6.20
2018-09-15T11:33:14.309Z,6.60
2018-09-15T11:34:14.372Z,5.30
2018-09-15T11:35:14.305Z,5.40
2018-09-15T11:36:14.301Z,5.90
2018-09-15T11:37:14.302Z,5.00
2018-09-15T11:38:14.294Z,5.00
2018-09-15T11:39:14.291Z,5.80
2018-09-15T11:40:14.305Z,4.30
2018-09-15T11:42:42.796Z,4.90
2018-09-15T11:43:42.862Z,7.00
2018-09-15T11:44:42.796Z,6.00
2018-09-15T11:45:42.792Z,6.30
2018-09-15T11:46:42.786Z,4.10
2018-09-15T11:47:42.811Z,4.00
2018-09-15T11:48:42.778Z,5.10
2018-09-15T11:49:42.782Z,4.60
2018-09-15T11:50:42.821Z,4.20
2018-09-15T11:51:42.776Z,4.30
2018-09-15T11:52:42.773Z,4.20
2018-09-15T11:53:42.807Z,5.00
2018-09-15T11:54:42.771Z,6.00
2018-09-15T11:55:42.767Z,7.60
2018-09-15T11:56:42.765Z,5.60
2018-09-15T11:57:42.814Z,4.10
2018-09-15T11:58:42.760Z,6.10
2018-09-15T11:59:42.761Z,5.40
2018-09-15T12:00:42.844Z,4.30
2018-09-15T12:01:42.772Z,5.40
2018-09-15T12:02:42.772Z,6.00
2018-09-15T12:03:42.749Z,8.70
2018-09-15T12:04:42.768Z,4.80
2018-09-15T12:05:42.748Z,6.40
2018-09-15T12:06:42.740Z,7.50
2018-09-15T12:07:42.753Z,4.90
2018-09-15T12:08:42.742Z,4.80
2018-09-15T12:09:42.735Z,5.10
2018-09-15T12:10:42.739Z,5.80
2018-09-15T12:11:42.735Z,4.20
2018-09-15T12:12:42.735Z,6.00
2018-09-15T12:13:42.730Z,5.30
2018-09-15T12:14:42.734Z,4.40
2018-09-15T12:15:42.722Z,4.10
2018-09-15T12:16:42.729Z,7.40
2018-09-15T12:17:42.726Z,5.30
2018-09-15T12:18:42.724Z,4.40
2018-09-15T12:19:42.720Z,5.30
2018-09-15T12:20:42.716Z,5.50
2018-09-15T12:21:42.855Z,4.90
2018-09-15T12:22:42.719Z,6.20
2018-09-15T12:23:42.717Z,4.40
2018-09-15T12:24:42.742Z,5.60
2018-09-15T12:25:42.706Z,6.70
2018-09-15T12:26:42.711Z,5.30
2018-09-15T12:27:42.768Z,5.40
2018-09-15T12:28:42.701Z,4.20
2018-09-15T12:29:42.701Z,4.30
2018-09-15T12:30:42.698Z,4.30
2018-09-15T12:31:42.701Z,5.60
2018-09-15T12:32:42.701Z,4.80
2018-09-15T12:33:42.696Z,6.40
2018-09-15T12:34:42.698Z,5.50
2018-09-15T12:35:42.695Z,4.60
2018-09-15T12:36:42.729Z,4.90
2018-09-15T12:37:42.690Z,4.80
2018-09-15T12:38:42.691Z,6.00
2018-09-15T12:39:42.680Z,4.50
2018-09-15T12:40:42.683Z,4.30
2018-09-15T12:41:42.702Z,7.50
2018-09-15T12:42:42.680Z,5.70
2018-09-15T12:43:42.678Z,5.50
2018-09-15T12:44:42.674Z,5.20
2018-09-15T12:45:42.693Z,4.30
2018-09-15T12:46:42.669Z,6.30
2018-09-15T12:47:42.669Z,6.70
2018-09-15T12:48:42.672Z,6.00
2018-09-15T12:49:42.685Z,4.50
2018-09-15T12:50:42.667Z,4.90
2018-09-15T12:51:42.663Z,4.60
2018-09-15T12:52:42.663Z,6.30
2018-09-15T12:53:42.659Z,3.60
2018-09-15T12:54:42.659Z,5.10
2018-09-15T12:55:42.655Z,6.90
2018-09-15T12:56:42.655Z,5.20
2018-09-15T12:57:42.692Z,5.40
2018-09-15T12:58:42.649Z,4.70
2018-09-15T12:59:42.670Z,4.40
2018-09-15T13:00:42.642Z,6.70
2018-09-15T13:01:42.649Z,4.40